Sardinia Regina — IBMS — position and weather

sailwx.info

Track history (hours):
 
Tides and Currents Weather Stations Pressure Air Temp Water Temp Dewpoint Dewpoint Depression Visibility Wind Speed Wind Dir Waves Ship Positions

Sardinia Regina

Last reported at 2014-Jul-31 23:33 UTC. Time now 2014-Jul-31 23:48 UTC.
Position N 43°51' E 008°50'.

Length 146 m; draft 5 m.

Type: Passenger vessel. MMSI: 247079000.

Date/timePositionNaut miles runAvg speedWind from/ knotsBaromVisibWave heightAir tempDewpointWater temp
2014-Jul-31 23:33N 43°51' E 008°50'1515.3
2014-Jul-31 22:33N 44°04' E 008°40'1514.0
2014-Jul-31 21:31N 44°16' E 008°27'0 0.1
2014-Jul-31 20:30N 44°16' E 008°27'5 5.4
2014-Jul-31 19:33N 44°13' E 008°33'1818.0
2014-Jul-31 18:33N 43°58' E 008°46'1818.0
2014-Jul-31 17:33N 43°42' E 008°59'1818.1
2014-Jul-31 16:33N 43°27' E 009°11'17 2.7
2014-Jul-31 10:11N 43°12' E 009°23'1417.5
2014-Jul-31 09:21N 43°25' E 009°14'1417.8
2014-Jul-31 08:33N 43°37' E 009°03'1817.7
2014-Jul-31 07:33N 43°52' E 008°50'1717.5
2014-Jul-31 06:33N 44°07' E 008°38'1212.0
2014-Jul-31 05:33N 44°16' E 008°27'0 0.0
2014-Jul-31 04:33N 44°16' E 008°27'1111.3
2014-Jul-31 03:34N 44°07' E 008°37'1616.2
2014-Jul-31 02:34N 43°52' E 008°46'1616.4
2014-Jul-31 01:34N 43°37' E 008°54'1615.9
2014-Jul-31 00:34N 43°25' E 009°08'1515.4
2014-Jul-30 23:34N 43°13' E 009°22'1515.2
2014-Jul-30 22:33N 42°60' E 009°32'1814.4
2014-Jul-30 21:18N 42°42' E 009°27'35 9.2
2014-Jul-30 17:31N 43°16' E 009°20'1616.9
2014-Jul-30 16:34N 43°30' E 009°08'1716.9
2014-Jul-30 15:34N 43°44' E 008°56'1716.6
2014-Jul-30 14:34N 43°59' E 008°44'1716.7
2014-Jul-30 13:33N 44°13' E 008°31'4 4.3
2014-Jul-30 12:32N 44°16' E 008°27'0 0.0
2014-Jul-30 11:33N 44°16' E 008°27'0 0.0
2014-Jul-30 10:33N 44°16' E 008°27'0 0.0
2014-Jul-30 09:33N 44°16' E 008°27'0 0.0
2014-Jul-30 08:33N 44°16' E 008°27'0 0.0
2014-Jul-30 07:33N 44°16' E 008°27'0 0.0
2014-Jul-30 06:33N 44°16' E 008°27'0 0.0
2014-Jul-30 05:33N 44°16' E 008°27'7 6.4
2014-Jul-30 04:32N 44°12' E 008°34'1414.3
2014-Jul-30 03:34N 43°60' E 008°44'1312.8
2014-Jul-30 02:33N 43°49' E 008°53'10 9.8
2014-Jul-30 01:33N 43°40' E 009°00'9 9.1
2014-Jul-30 00:33N 43°33' E 009°07'9 9.1
2014-Jul-29 23:33N 43°25' E 009°14'9 9.1
2014-Jul-29 22:33N 43°17' E 009°20'10 8.8
2014-Jul-29 21:28N 43°09' E 009°27'22 3.5
2014-Jul-29 15:13N 42°54' E 009°48'1217.3
2014-Jul-29 14:32N 43°03' E 009°59'1717.6
2014-Jul-29 13:33N 43°19' E 010°06'1515.5
2014-Jul-29 12:33N 43°32' E 010°17'1 1.3
2014-Jul-29 11:33N 43°33' E 010°18'3 2.9
2014-Jul-29 10:33N 43°31' E 010°15'1616.5
2014-Jul-29 09:33N 43°19' E 009°60'33 4.2
2014-Jul-29 01:33N 43°22' E 009°14'1514.7
2014-Jul-29 00:34N 43°35' E 009°03'1414.3
2014-Jul-28 23:34N 43°47' E 008°54'1414.2
2014-Jul-28 22:34N 43°59' E 008°44'1714.6
2014-Jul-28 21:24N 44°14' E 008°31'4 4.2
2014-Jul-28 20:33N 44°16' E 008°27'1 0.5
2014-Jul-28 19:33N 44°16' E 008°27'1616.6
2014-Jul-28 18:33N 44°03' E 008°41'1817.6
2014-Jul-28 17:33N 43°48' E 008°54'1717.2
2014-Jul-28 16:33N 43°33' E 009°05'1717.2
2014-Jul-28 15:33N 43°19' E 009°19'7 1.3
2014-Jul-28 10:04N 43°12' E 009°23'917.3
2014-Jul-28 09:33N 43°20' E 009°17'1717.7
2014-Jul-28 08:33N 43°35' E 009°05'1817.6
2014-Jul-28 07:33N 43°50' E 008°52'1717.0
2014-Jul-28 06:33N 44°05' E 008°40'1414.0
2014-Jul-28 05:32N 44°16' E 008°27'0 0.0
2014-Jul-28 04:33N 44°16' E 008°27'8 7.5
2014-Jul-28 03:33N 44°10' E 008°34'1212.2
2014-Jul-28 02:33N 43°59' E 008°41'1312.5
2014-Jul-28 01:33N 43°50' E 008°53'1010.1
2014-Jul-28 00:33N 43°41' E 008°59'1010.2
2014-Jul-27 23:33N 43°32' E 009°06'1010.2
2014-Jul-27 22:33N 43°23' E 009°11'1010.2
2014-Jul-27 21:33N 43°14' E 009°19'1010.1
2014-Jul-27 20:33N 43°06' E 009°27'1010.4
2014-Jul-27 19:33N 42°56' E 009°32'10 2.3
2014-Jul-27 15:23N 42°50' E 009°42'1315.5
2014-Jul-27 14:31N 42°59' E 009°56'1617.1
2014-Jul-27 13:33N 43°14' E 010°05'1716.9
2014-Jul-27 12:33N 43°30' E 010°12'5 5.2
2014-Jul-27 11:33N 43°33' E 010°18'1 0.6
2014-Jul-27 10:33N 43°33' E 010°17'1414.4
2014-Jul-27 09:33N 43°22' E 010°04'1616.4
2014-Jul-27 08:33N 43°11' E 009°48'30 4.2
2014-Jul-27 01:33N 43°22' E 009°10'1514.8
2014-Jul-27 00:34N 43°36' E 009°04'1514.6
2014-Jul-26 23:33N 43°48' E 008°53'1312.9
2014-Jul-26 22:33N 43°59' E 008°44'1513.1
2014-Jul-26 21:24N 44°12' E 008°33'6 6.4
2014-Jul-26 20:32N 44°16' E 008°27'0 0.2
2014-Jul-26 19:33N 44°16' E 008°27'1616.3
2014-Jul-26 18:33N 44°03' E 008°41'1918.6
2014-Jul-26 17:34N 43°47' E 008°54'1818.1
2014-Jul-26 16:34N 43°32' E 009°07'1817.8
2014-Jul-26 15:34N 43°16' E 009°20'1817.7
2014-Jul-26 14:32N 43°01' E 009°32'29 5.4
2014-Jul-26 09:07N 43°26' E 009°12'1018.4
2014-Jul-26 08:34N 43°35' E 009°05'1817.9
2014-Jul-26 07:34N 43°50' E 008°52'1817.5
2014-Jul-26 06:33N 44°05' E 008°40'1413.8
2014-Jul-26 05:33N 44°16' E 008°27'0 0.0
2014-Jul-26 04:33N 44°16' E 008°27'7 6.5
2014-Jul-26 03:33N 44°11' E 008°34'10 9.9
2014-Jul-26 02:33N 44°04' E 008°43'1010.1
2014-Jul-26 01:33N 43°55' E 008°49'1110.8
2014-Jul-26 00:33N 43°46' E 008°57'1110.9
2014-Jul-25 23:33N 43°36' E 009°04'1110.7
2014-Jul-25 22:33N 43°27' E 009°12'1110.6
2014-Jul-25 21:33N 43°18' E 009°19'1110.8
2014-Jul-25 20:33N 43°08' E 009°26'1111.2
2014-Jul-25 19:33N 42°58' E 009°32'16 5.2
2014-Jul-25 16:26N 42°42' E 009°27'2814.7
2014-Jul-25 14:33N 43°07' E 009°42'1615.8
2014-Jul-25 13:33N 43°19' E 009°57'1616.3
2014-Jul-25 12:34N 43°30' E 010°13'5 4.6
2014-Jul-25 11:33N 43°33' E 010°18'2 1.8
2014-Jul-25 10:33N 43°32' E 010°16'1414.0
2014-Jul-25 09:33N 43°22' E 010°03'1615.7
2014-Jul-25 08:33N 43°11' E 009°48'18 2.7
2014-Jul-25 02:05N 43°13' E 009°23'815.0
2014-Jul-25 01:33N 43°20' E 009°18'1515.5
2014-Jul-25 00:33N 43°33' E 009°07'1515.3
2014-Jul-24 23:34N 43°46' E 008°57'1514.9
2014-Jul-24 22:33N 43°58' E 008°45'1515.2
2014-Jul-24 21:32N 44°12' E 008°34'7 6.6
2014-Jul-24 20:32N 44°16' E 008°27'1 0.7
2014-Jul-24 19:33N 44°16' E 008°28'1616.0
2014-Jul-24 18:33N 44°04' E 008°41'1818.2
2014-Jul-24 17:33N 43°48' E 008°54'1818.1
2014-Jul-24 16:33N 43°32' E 009°07'1817.6
2014-Jul-24 15:33N 43°17' E 009°20'3 0.6
2014-Jul-24 09:30N 43°20' E 009°17'1718.3
2014-Jul-24 08:33N 43°35' E 009°05'1717.4
2014-Jul-24 07:33N 43°50' E 008°52'1717.2
2014-Jul-24 06:33N 44°04' E 008°39'1414.3
2014-Jul-24 05:33N 44°16' E 008°27'0 0.0
2014-Jul-24 04:30N 44°16' E 008°27'8 8.1
2014-Jul-24 03:34N 44°10' E 008°35'1515.2
2014-Jul-24 02:34N 43°58' E 008°46'1615.6
2014-Jul-24 01:34N 43°44' E 008°57'1515.4
2014-Jul-24 00:33N 43°31' E 009°08'1515.2
2014-Jul-23 23:34N 43°18' E 009°19'1515.4
2014-Jul-23 22:34N 43°05' E 009°29'1615.5
2014-Jul-23 21:33N 42°49' E 009°32'8 3.6
2014-Jul-23 19:16N 42°42' E 009°28'1715.9
2014-Jul-23 18:13N 42°58' E 009°32'1116.9
2014-Jul-23 17:33N 43°08' E 009°25'1817.9
2014-Jul-23 16:33N 43°24' E 009°13'1817.8
2014-Jul-23 15:33N 43°39' E 009°01'1716.9
2014-Jul-23 14:33N 43°54' E 008°49'1717.4
2014-Jul-23 13:33N 44°08' E 008°35'10 9.2
2014-Jul-23 12:31N 44°16' E 008°27'0 0.0
2014-Jul-23 11:33N 44°16' E 008°27'0 0.0
2014-Jul-23 10:33N 44°16' E 008°27'0 0.0
2014-Jul-23 09:33N 44°16' E 008°27'0 0.0
2014-Jul-23 08:33N 44°16' E 008°27'0 0.0
2014-Jul-23 07:33N 44°16' E 008°27'0 0.0
2014-Jul-23 06:33N 44°16' E 008°27'0 0.0
2014-Jul-23 05:33N 44°16' E 008°27'4 3.9
2014-Jul-23 04:33N 44°14' E 008°32'1312.7
2014-Jul-23 03:33N 44°03' E 008°41'1211.5
2014-Jul-23 02:33N 43°54' E 008°50'1010.4
2014-Jul-23 01:33N 43°45' E 008°58'1010.2
2014-Jul-23 00:33N 43°36' E 009°05'10 9.5
2014-Jul-22 23:33N 43°28' E 009°11'9 8.9
2014-Jul-22 22:33N 43°20' E 009°17'9 9.1
2014-Jul-22 21:33N 43°12' E 009°23'9 9.0
2014-Jul-22 20:33N 43°04' E 009°30'10 9.4
2014-Jul-22 19:33N 42°55' E 009°32'9 9.4
2014-Jul-22 18:33N 42°46' E 009°32'7 2.4
2014-Jul-22 15:33N 42°49' E 009°41'1616.5
2014-Jul-22 14:33N 42°60' E 009°58'1716.9
2014-Jul-22 13:33N 43°16' E 010°05'1716.5
2014-Jul-22 12:33N 43°31' E 010°14'4 3.7
2014-Jul-22 11:33N 43°33' E 010°18'2 2.2
2014-Jul-22 10:33N 43°31' E 010°16'1615.9
2014-Jul-22 09:33N 43°20' E 010°01'1716.6
2014-Jul-22 08:33N 43°08' E 009°45'17 2.7
2014-Jul-22 02:20N 43°11' E 009°22'1214.3
2014-Jul-22 01:32N 43°21' E 009°14'1616.1
2014-Jul-22 00:34N 43°34' E 009°03'1515.3
2014-Jul-21 23:34N 43°47' E 008°53'  
Track history (hours):
 
Tides and Currents Weather Stations Pressure Air Temp Water Temp Dewpoint Dewpoint Depression Visibility Wind Speed Wind Dir Waves Ship Positions

Sardinia Regina

Last reported at 2014-Jul-31 23:33 UTC. Time now 2014-Jul-31 23:48 UTC.
Position N 43°51' E 008°50'.

Length 146 m; draft 5 m.

Type: Passenger vessel. MMSI: 247079000.

Date/timePositionNaut miles runAvg speedWind from/ knotsBaromVisibWave heightAir tempDewpointWater temp
2014-Jul-31 23:33N 43°51' E 008°50'1515.3
2014-Jul-31 22:33N 44°04' E 008°40'1514.0
2014-Jul-31 21:31N 44°16' E 008°27'0 0.1
2014-Jul-31 20:30N 44°16' E 008°27'5 5.4
2014-Jul-31 19:33N 44°13' E 008°33'1818.0
2014-Jul-31 18:33N 43°58' E 008°46'1818.0
2014-Jul-31 17:33N 43°42' E 008°59'1818.1
2014-Jul-31 16:33N 43°27' E 009°11'17 2.7
2014-Jul-31 10:11N 43°12' E 009°23'1417.5
2014-Jul-31 09:21N 43°25' E 009°14'1417.8
2014-Jul-31 08:33N 43°37' E 009°03'1817.7
2014-Jul-31 07:33N 43°52' E 008°50'1717.5
2014-Jul-31 06:33N 44°07' E 008°38'1212.0
2014-Jul-31 05:33N 44°16' E 008°27'0 0.0
2014-Jul-31 04:33N 44°16' E 008°27'1111.3
2014-Jul-31 03:34N 44°07' E 008°37'1616.2
2014-Jul-31 02:34N 43°52' E 008°46'1616.4
2014-Jul-31 01:34N 43°37' E 008°54'1615.9
2014-Jul-31 00:34N 43°25' E 009°08'1515.4
2014-Jul-30 23:34N 43°13' E 009°22'1515.2
2014-Jul-30 22:33N 42°60' E 009°32'1814.4
2014-Jul-30 21:18N 42°42' E 009°27'35 9.2
2014-Jul-30 17:31N 43°16' E 009°20'1616.9
2014-Jul-30 16:34N 43°30' E 009°08'1716.9
2014-Jul-30 15:34N 43°44' E 008°56'1716.6
2014-Jul-30 14:34N 43°59' E 008°44'1716.7
2014-Jul-30 13:33N 44°13' E 008°31'4 4.3
2014-Jul-30 12:32N 44°16' E 008°27'0 0.0
2014-Jul-30 11:33N 44°16' E 008°27'0 0.0
2014-Jul-30 10:33N 44°16' E 008°27'0 0.0
2014-Jul-30 09:33N 44°16' E 008°27'0 0.0
2014-Jul-30 08:33N 44°16' E 008°27'0 0.0
2014-Jul-30 07:33N 44°16' E 008°27'0 0.0
2014-Jul-30 06:33N 44°16' E 008°27'0 0.0
2014-Jul-30 05:33N 44°16' E 008°27'7 6.4
2014-Jul-30 04:32N 44°12' E 008°34'1414.3
2014-Jul-30 03:34N 43°60' E 008°44'1312.8
2014-Jul-30 02:33N 43°49' E 008°53'10 9.8
2014-Jul-30 01:33N 43°40' E 009°00'9 9.1
2014-Jul-30 00:33N 43°33' E 009°07'9 9.1
2014-Jul-29 23:33N 43°25' E 009°14'9 9.1
2014-Jul-29 22:33N 43°17' E 009°20'10 8.8
2014-Jul-29 21:28N 43°09' E 009°27'22 3.5
2014-Jul-29 15:13N 42°54' E 009°48'1217.3
2014-Jul-29 14:32N 43°03' E 009°59'1717.6
2014-Jul-29 13:33N 43°19' E 010°06'1515.5
2014-Jul-29 12:33N 43°32' E 010°17'1 1.3
2014-Jul-29 11:33N 43°33' E 010°18'3 2.9
2014-Jul-29 10:33N 43°31' E 010°15'1616.5
2014-Jul-29 09:33N 43°19' E 009°60'33 4.2
2014-Jul-29 01:33N 43°22' E 009°14'1514.7
2014-Jul-29 00:34N 43°35' E 009°03'1414.3
2014-Jul-28 23:34N 43°47' E 008°54'1414.2
2014-Jul-28 22:34N 43°59' E 008°44'1714.6
2014-Jul-28 21:24N 44°14' E 008°31'4 4.2
2014-Jul-28 20:33N 44°16' E 008°27'1 0.5
2014-Jul-28 19:33N 44°16' E 008°27'1616.6
2014-Jul-28 18:33N 44°03' E 008°41'1817.6
2014-Jul-28 17:33N 43°48' E 008°54'1717.2
2014-Jul-28 16:33N 43°33' E 009°05'1717.2
2014-Jul-28 15:33N 43°19' E 009°19'7 1.3
2014-Jul-28 10:04N 43°12' E 009°23'917.3
2014-Jul-28 09:33N 43°20' E 009°17'1717.7
2014-Jul-28 08:33N 43°35' E 009°05'1817.6
2014-Jul-28 07:33N 43°50' E 008°52'1717.0
2014-Jul-28 06:33N 44°05' E 008°40'1414.0
2014-Jul-28 05:32N 44°16' E 008°27'0 0.0
2014-Jul-28 04:33N 44°16' E 008°27'8 7.5
2014-Jul-28 03:33N 44°10' E 008°34'1212.2
2014-Jul-28 02:33N 43°59' E 008°41'1312.5
2014-Jul-28 01:33N 43°50' E 008°53'1010.1
2014-Jul-28 00:33N 43°41' E 008°59'1010.2
2014-Jul-27 23:33N 43°32' E 009°06'1010.2
2014-Jul-27 22:33N 43°23' E 009°11'1010.2
2014-Jul-27 21:33N 43°14' E 009°19'1010.1
2014-Jul-27 20:33N 43°06' E 009°27'1010.4
2014-Jul-27 19:33N 42°56' E 009°32'10 2.3
2014-Jul-27 15:23N 42°50' E 009°42'1315.5
2014-Jul-27 14:31N 42°59' E 009°56'1617.1
2014-Jul-27 13:33N 43°14' E 010°05'1716.9
2014-Jul-27 12:33N 43°30' E 010°12'5 5.2
2014-Jul-27 11:33N 43°33' E 010°18'1 0.6
2014-Jul-27 10:33N 43°33' E 010°17'1414.4
2014-Jul-27 09:33N 43°22' E 010°04'1616.4
2014-Jul-27 08:33N 43°11' E 009°48'30 4.2
2014-Jul-27 01:33N 43°22' E 009°10'1514.8
2014-Jul-27 00:34N 43°36' E 009°04'1514.6
2014-Jul-26 23:33N 43°48' E 008°53'1312.9
2014-Jul-26 22:33N 43°59' E 008°44'1513.1
2014-Jul-26 21:24N 44°12' E 008°33'6 6.4
2014-Jul-26 20:32N 44°16' E 008°27'0 0.2
2014-Jul-26 19:33N 44°16' E 008°27'1616.3
2014-Jul-26 18:33N 44°03' E 008°41'1918.6
2014-Jul-26 17:34N 43°47' E 008°54'1818.1
2014-Jul-26 16:34N 43°32' E 009°07'1817.8
2014-Jul-26 15:34N 43°16' E 009°20'1817.7
2014-Jul-26 14:32N 43°01' E 009°32'29 5.4
2014-Jul-26 09:07N 43°26' E 009°12'1018.4
2014-Jul-26 08:34N 43°35' E 009°05'1817.9
2014-Jul-26 07:34N 43°50' E 008°52'1817.5
2014-Jul-26 06:33N 44°05' E 008°40'1413.8
2014-Jul-26 05:33N 44°16' E 008°27'0 0.0
2014-Jul-26 04:33N 44°16' E 008°27'7 6.5
2014-Jul-26 03:33N 44°11' E 008°34'10 9.9
2014-Jul-26 02:33N 44°04' E 008°43'1010.1
2014-Jul-26 01:33N 43°55' E 008°49'1110.8
2014-Jul-26 00:33N 43°46' E 008°57'1110.9
2014-Jul-25 23:33N 43°36' E 009°04'1110.7
2014-Jul-25 22:33N 43°27' E 009°12'1110.6
2014-Jul-25 21:33N 43°18' E 009°19'1110.8
2014-Jul-25 20:33N 43°08' E 009°26'1111.2
2014-Jul-25 19:33N 42°58' E 009°32'16 5.2
2014-Jul-25 16:26N 42°42' E 009°27'2814.7
2014-Jul-25 14:33N 43°07' E 009°42'1615.8
2014-Jul-25 13:33N 43°19' E 009°57'1616.3
2014-Jul-25 12:34N 43°30' E 010°13'5 4.6
2014-Jul-25 11:33N 43°33' E 010°18'2 1.8
2014-Jul-25 10:33N 43°32' E 010°16'1414.0
2014-Jul-25 09:33N 43°22' E 010°03'1615.7
2014-Jul-25 08:33N 43°11' E 009°48'18 2.7
2014-Jul-25 02:05N 43°13' E 009°23'815.0
2014-Jul-25 01:33N 43°20' E 009°18'1515.5
2014-Jul-25 00:33N 43°33' E 009°07'1515.3
2014-Jul-24 23:34N 43°46' E 008°57'1514.9
2014-Jul-24 22:33N 43°58' E 008°45'1515.2
2014-Jul-24 21:32N 44°12' E 008°34'7 6.6
2014-Jul-24 20:32N 44°16' E 008°27'1 0.7
2014-Jul-24 19:33N 44°16' E 008°28'1616.0
2014-Jul-24 18:33N 44°04' E 008°41'1818.2
2014-Jul-24 17:33N 43°48' E 008°54'1818.1
2014-Jul-24 16:33N 43°32' E 009°07'1817.6
2014-Jul-24 15:33N 43°17' E 009°20'3 0.6
2014-Jul-24 09:30N 43°20' E 009°17'1718.3
2014-Jul-24 08:33N 43°35' E 009°05'1717.4
2014-Jul-24 07:33N 43°50' E 008°52'1717.2
2014-Jul-24 06:33N 44°04' E 008°39'1414.3
2014-Jul-24 05:33N 44°16' E 008°27'0 0.0
2014-Jul-24 04:30N 44°16' E 008°27'8 8.1
2014-Jul-24 03:34N 44°10' E 008°35'1515.2
2014-Jul-24 02:34N 43°58' E 008°46'1615.6
2014-Jul-24 01:34N 43°44' E 008°57'1515.4
2014-Jul-24 00:33N 43°31' E 009°08'1515.2
2014-Jul-23 23:34N 43°18' E 009°19'1515.4
2014-Jul-23 22:34N 43°05' E 009°29'1615.5
2014-Jul-23 21:33N 42°49' E 009°32'8 3.6
2014-Jul-23 19:16N 42°42' E 009°28'1715.9
2014-Jul-23 18:13N 42°58' E 009°32'1116.9
2014-Jul-23 17:33N 43°08' E 009°25'1817.9
2014-Jul-23 16:33N 43°24' E 009°13'1817.8
2014-Jul-23 15:33N 43°39' E 009°01'1716.9
2014-Jul-23 14:33N 43°54' E 008°49'1717.4
2014-Jul-23 13:33N 44°08' E 008°35'10 9.2
2014-Jul-23 12:31N 44°16' E 008°27'0 0.0
2014-Jul-23 11:33N 44°16' E 008°27'0 0.0
2014-Jul-23 10:33N 44°16' E 008°27'0 0.0
2014-Jul-23 09:33N 44°16' E 008°27'0 0.0
2014-Jul-23 08:33N 44°16' E 008°27'0 0.0
2014-Jul-23 07:33N 44°16' E 008°27'0 0.0
2014-Jul-23 06:33N 44°16' E 008°27'0 0.0
2014-Jul-23 05:33N 44°16' E 008°27'4 3.9
2014-Jul-23 04:33N 44°14' E 008°32'1312.7
2014-Jul-23 03:33N 44°03' E 008°41'1211.5
2014-Jul-23 02:33N 43°54' E 008°50'1010.4
2014-Jul-23 01:33N 43°45' E 008°58'1010.2
2014-Jul-23 00:33N 43°36' E 009°05'10 9.5
2014-Jul-22 23:33N 43°28' E 009°11'9 8.9
2014-Jul-22 22:33N 43°20' E 009°17'9 9.1
2014-Jul-22 21:33N 43°12' E 009°23'9 9.0
2014-Jul-22 20:33N 43°04' E 009°30'10 9.4
2014-Jul-22 19:33N 42°55' E 009°32'9 9.4
2014-Jul-22 18:33N 42°46' E 009°32'7 2.4
2014-Jul-22 15:33N 42°49' E 009°41'1616.5
2014-Jul-22 14:33N 42°60' E 009°58'1716.9
2014-Jul-22 13:33N 43°16' E 010°05'1716.5
2014-Jul-22 12:33N 43°31' E 010°14'4 3.7
2014-Jul-22 11:33N 43°33' E 010°18'2 2.2
2014-Jul-22 10:33N 43°31' E 010°16'1615.9
2014-Jul-22 09:33N 43°20' E 010°01'1716.6
2014-Jul-22 08:33N 43°08' E 009°45'17 2.7
2014-Jul-22 02:20N 43°11' E 009°22'1214.3
2014-Jul-22 01:32N 43°21' E 009°14'1616.1
2014-Jul-22 00:34N 43°34' E 009°03'1515.3
2014-Jul-21 23:34N 43°47' E 008°53'  

Dump ship's entire track history